Time;durP1;ratioP1;P1;durP2;ratioP2;P2;SDS_P1;SDS_P2;PMS_P1;PMS_P2;Temp;Humidity;BMP_temperature;BMP_pressure;BME280_temperature;BME280_humidity;BME280_pressure;Samples;Min_cycle;Max_cycle;Signal;HPM_P1;HPM_P2
2021/10/21 00:02:14;;;;;;;;;;;;;;;;;;5058037;28;19931;-81
2021/10/21 00:04:40;;;;;;;;;;;;;;;;;;5057520;28;20381;-81
2021/10/21 00:07:05;;;;;;;;;;;;;;;;;;5047313;28;19921;-82
2021/10/21 00:09:31;;;;;;;;;;;;;;;;;;5071180;28;19912;-81
2021/10/21 00:11:56;;;;;;;;;;;;;;;;;;5038959;28;19916;-81
2021/10/21 00:14:21;;;;;;;;;;;;;;;;;;5054500;28;19923;-82
2021/10/21 00:16:47;;;;;;;;;;;;;;;;;;5037852;28;19917;-81
2021/10/21 00:19:12;;;;;;;;;;;;;;;;;;5037158;28;19939;-82
2021/10/21 00:21:38;;;;;;;;;;;;;;;;;;5037658;28;19920;-82
2021/10/21 00:24:03;;;;;;;;;;;;;;;;;;5055006;28;19912;-81
2021/10/21 00:26:28;;;;;;;;;;;;;;;;;;5074368;28;20018;-82
2021/10/21 00:28:54;;;;;;;;;;;;;;;;;;5053856;28;20015;-82
2021/10/21 00:31:19;;;;;;;;;;;;;;;;;;5070777;28;19921;-82
2021/10/21 00:33:45;;;;;;;;;;;;;;;;;;5073762;28;19916;-81
2021/10/21 00:36:10;;;;;;;;;;;;;;;;;;5057404;28;19923;-81
2021/10/21 00:38:36;;;;;;;;;;;;;;;;;;5069326;28;19913;-81
2021/10/21 00:41:01;;;;;;;;;;;;;;;;;;5057152;28;19916;-81
2021/10/21 00:43:33;;;;;;;;;;;;;;;;;;5073881;28;19919;-81
2021/10/21 00:45:59;;;;;;;;;;;;;;;;;;5056106;28;19988;-81
2021/10/21 00:48:24;;;;;;;;;;;;;;;;;;5069640;28;20386;-81
2021/10/21 00:50:49;;;;;;;;;;;;;;;;;;5054270;28;19995;-81
2021/10/21 00:53:15;;;;;;;;;;;;;;;;;;5053165;28;20302;-81
2021/10/21 00:55:40;;;;;;;;;;;;;;;;;;5057593;28;19912;-81
2021/10/21 00:58:06;;;;;;;;;;;;;;;;;;5068458;28;20432;-81
2021/10/21 01:00:31;;;;;;;;;;;;;;;;;;5041098;28;19934;-81
2021/10/21 01:02:57;;;;;;;;;;;;;;;;;;5041151;28;19912;-82
2021/10/21 01:05:22;;;;;;;;;;;;;;;;;;5045398;28;19920;-81
2021/10/21 01:07:47;;;;;;;;;;;;;;;;;;5058109;28;19912;-82
2021/10/21 01:10:14;;;;;;;;;;;;;;;;;;5074865;28;19917;-82
2021/10/21 01:12:39;;;;;;;;;;;;;;;;;;5058710;28;19981;-82
2021/10/21 01:15:25;;;;;;;;;;;;;;;;;;5061073;28;19962;-82
2021/10/21 01:17:51;;;;;;;;;;;;;;;;;;5065781;28;19916;-82
2021/10/21 01:20:16;;;;;;;;;;;;;;;;;;5076007;28;19931;-81
2021/10/21 01:22:42;;;;;;;;;;;;;;;;;;5077411;28;19939;-81
2021/10/21 01:25:07;;;;;;;;;;;;;;;;;;5061036;28;19912;-81
2021/10/21 01:27:33;;;;;;;;;;;;;;;;;;5077484;28;19919;-81
2021/10/21 01:29:58;;;;;;;;;;;;;;;;;;5057130;28;19916;-81
2021/10/21 01:32:23;;;;;;;;;;;;;;;;;;5090810;28;20070;-81
2021/10/21 01:34:48;;;;;;;;;;;;;;;;;;5106194;28;19920;-82
2021/10/21 01:37:14;;;;;;;;;;;;;;;;;;5077193;28;20021;-83
2021/10/21 01:39:39;;;;;;;;;;;;;;;;;;5076763;28;20007;-83
2021/10/21 01:42:04;;;;;;;;;;;;;;;;;;5077274;28;19916;-81
2021/10/21 01:44:30;;;;;;;;;;;;;;;;;;5049346;28;19916;-81
2021/10/21 01:46:55;;;;;;;;;;;;;;;;;;5045396;28;19920;-81
2021/10/21 01:49:20;;;;;;;;;;;;;;;;;;5076794;28;19959;-81
2021/10/21 01:51:47;;;;;;;;;;;;;;;;;;5052880;28;19920;-81
2021/10/21 01:54:12;;;;;;;;;;;;;;;;;;5043196;28;19969;-81
2021/10/21 01:56:37;;;;;;;;;;;;;;;;;;5060268;28;19912;-81
2021/10/21 01:59:03;;;;;;;;;;;;;;;;;;5059551;28;19923;-83
2021/10/21 02:01:28;;;;;;;;;;;;;;;;;;5059725;28;19912;-82
2021/10/21 02:03:53;;;;;;;;;;;;;;;;;;5069688;28;19916;-82
2021/10/21 02:06:19;;;;;;;;;;;;;;;;;;5066146;28;19920;-82
2021/10/21 02:08:44;;;;;;;;;;;;;;;;;;5061930;28;20404;-82
2021/10/21 02:11:09;;;;;;;;;;;;;;;;;;5054355;28;19923;-82
2021/10/21 02:13:35;;;;;;;;;;;;;;;;;;5056463;28;20275;-82
2021/10/21 02:16:00;;;;;;;;;;;;;;;;;;5056851;28;19919;-82
2021/10/21 02:18:27;;;;;;;;;;;;;;;;;;5047231;28;19927;-82
2021/10/21 02:20:53;;;;;;;;;;;;;;;;;;5058910;28;19917;-81
2021/10/21 02:23:18;;;;;;;;;;;;;;;;;;5076166;28;19916;-83
2021/10/21 02:25:44;;;;;;;;;;;;;;;;;;5053072;28;19971;-82
2021/10/21 02:28:09;;;;;;;;;;;;;;;;;;5056442;28;20019;-83
2021/10/21 02:30:35;;;;;;;;;;;;;;;;;;5056295;28;19917;-84
2021/10/21 02:33:00;;;;;;;;;;;;;;;;;;5040141;28;20011;-83
2021/10/21 02:35:25;;;;;;;;;;;;;;;;;;5059033;28;19927;-82
2021/10/21 02:37:51;;;;;;;;;;;;;;;;;;5059816;28;20334;-82
2021/10/21 02:40:16;;;;;;;;;;;;;;;;;;5048249;28;19919;-83
2021/10/21 02:42:43;;;;;;;;;;;;;;;;;;5042412;28;19912;-82
2021/10/21 02:45:09;;;;;;;;;;;;;;;;;;5039281;28;19917;-82
2021/10/21 02:47:34;;;;;;;;;;;;;;;;;;5039850;28;19935;-81
2021/10/21 02:50:00;;;;;;;;;;;;;;;;;;5039211;28;19925;-81
2021/10/21 02:52:25;;;;;;;;;;;;;;;;;;5054631;28;19920;-83
2021/10/21 02:54:50;;;;;;;;;;;;;;;;;;5058669;28;20293;-82
2021/10/21 02:57:15;;;;;;;;;;;;;;;;;;5063106;28;19962;-82
2021/10/21 02:59:41;;;;;;;;;;;;;;;;;;5075726;28;19951;-82
2021/10/21 03:02:06;;;;;;;;;;;;;;;;;;5059328;28;19919;-82
2021/10/21 03:04:32;;;;;;;;;;;;;;;;;;5046961;28;20286;-82
2021/10/21 03:06:57;;;;;;;;;;;;;;;;;;5050936;28;19916;-82
2021/10/21 03:09:22;;;;;;;;;;;;;;;;;;5075134;28;19921;-82
2021/10/21 03:11:47;;;;;;;;;;;;;;;;;;5058658;28;19919;-82
2021/10/21 03:14:13;;;;;;;;;;;;;;;;;;5055159;28;20302;-82
2021/10/21 03:16:39;;;;;;;;;;;;;;;;;;5075501;28;19993;-81
2021/10/21 03:19:04;;;;;;;;;;;;;;;;;;5057404;28;19920;-82
2021/10/21 03:21:31;;;;;;;;;;;;;;;;;;5048304;28;19931;-82
2021/10/21 03:23:56;;;;;;;;;;;;;;;;;;5038808;28;20397;-81
2021/10/21 03:26:22;;;;;;;;;;;;;;;;;;5054735;28;19916;-81
2021/10/21 03:28:48;;;;;;;;;;;;;;;;;;5038397;28;19935;-81
2021/10/21 03:31:13;;;;;;;;;;;;;;;;;;5055094;28;20420;-81
2021/10/21 03:33:38;;;;;;;;;;;;;;;;;;5038801;28;19973;-81
2021/10/21 03:36:04;;;;;;;;;;;;;;;;;;5058333;28;19966;-82
2021/10/21 03:38:29;;;;;;;;;;;;;;;;;;5054802;28;19916;-82
2021/10/21 03:40:55;;;;;;;;;;;;;;;;;;5090231;28;19916;-82
2021/10/21 03:43:22;;;;;;;;;;;;;;;;;;5058202;28;19912;-82
2021/10/21 03:45:48;;;;;;;;;;;;;;;;;;5075286;28;19935;-82
2021/10/21 03:48:13;;;;;;;;;;;;;;;;;;5046027;28;19917;-82
2021/10/21 03:50:38;;;;;;;;;;;;;;;;;;5054684;28;20409;-82
2021/10/21 03:53:09;;;;;;;;;;;;;;;;;;5055096;28;19924;-82
2021/10/21 03:55:34;;;;;;;;;;;;;;;;;;5056461;28;20266;-82
2021/10/21 03:57:59;;;;;;;;;;;;;;;;;;5057930;28;19922;-83
2021/10/21 04:00:24;;;;;;;;;;;;;;;;;;5080168;28;20362;-82
2021/10/21 04:02:50;;;;;;;;;;;;;;;;;;5054416;28;20328;-82
2021/10/21 04:05:15;;;;;;;;;;;;;;;;;;5054644;28;19923;-83
2021/10/21 04:07:40;;;;;;;;;;;;;;;;;;5057511;28;19981;-82
2021/10/21 04:10:06;;;;;;;;;;;;;;;;;;5043172;28;19927;-82
2021/10/21 04:12:31;;;;;;;;;;;;;;;;;;5053783;28;19916;-82
2021/10/21 04:14:58;;;;;;;;;;;;;;;;;;5074484;28;20293;-83
2021/10/21 04:17:24;;;;;;;;;;;;;;;;;;5059305;28;20390;-82
2021/10/21 04:19:49;;;;;;;;;;;;;;;;;;5056849;28;19931;-81
2021/10/21 04:22:15;;;;;;;;;;;;;;;;;;5039644;28;20418;-82
2021/10/21 04:24:40;;;;;;;;;;;;;;;;;;5053858;28;19917;-81
2021/10/21 04:27:06;;;;;;;;;;;;;;;;;;5054218;28;19973;-82
2021/10/21 04:29:31;;;;;;;;;;;;;;;;;;5045927;28;19916;-82
2021/10/21 04:31:56;;;;;;;;;;;;;;;;;;5073569;28;20400;-82
2021/10/21 04:34:22;;;;;;;;;;;;;;;;;;5091026;28;19943;-82
2021/10/21 04:36:47;;;;;;;;;;;;;;;;;;5055742;28;19923;-82
2021/10/21 04:39:12;;;;;;;;;;;;;;;;;;5056619;28;19916;-81
2021/10/21 04:41:38;;;;;;;;;;;;;;;;;;5055584;28;19923;-81
2021/10/21 04:44:03;;;;;;;;;;;;;;;;;;5090788;28;19912;-81
2021/10/21 04:46:29;;;;;;;;;;;;;;;;;;5073738;28;20434;-81
2021/10/21 04:48:55;;;;;;;;;;;;;;;;;;5073915;28;19935;-81
2021/10/21 04:51:20;;;;;;;;;;;;;;;;;;5073792;28;19922;-80
2021/10/21 04:53:45;;;;;;;;;;;;;;;;;;5050968;28;19973;-81
2021/10/21 04:56:11;;;;;;;;;;;;;;;;;;5055491;28;19970;-80
2021/10/21 04:58:37;;;;;;;;;;;;;;;;;;5047525;28;19935;-81
2021/10/21 05:01:02;;;;;;;;;;;;;;;;;;5041448;28;19999;-81
2021/10/21 05:03:27;;;;;;;;;;;;;;;;;;5057456;28;19947;-81
2021/10/21 05:05:53;;;;;;;;;;;;;;;;;;5073237;28;19916;-81
2021/10/21 05:08:18;;;;;;;;;;;;;;;;;;5089617;28;19958;-81
2021/10/21 05:10:43;;;;;;;;;;;;;;;;;;5054029;28;19928;-81
2021/10/21 05:13:10;;;;;;;;;;;;;;;;;;5055282;28;19916;-82
2021/10/21 05:15:36;;;;;;;;;;;;;;;;;;5055934;28;19924;-81
2021/10/21 05:18:01;;;;;;;;;;;;;;;;;;5057343;28;19912;-83
2021/10/21 05:20:26;;;;;;;;;;;;;;;;;;5053621;28;20256;-82
2021/10/21 05:22:52;;;;;;;;;;;;;;;;;;5051695;28;20376;-82
2021/10/21 05:25:17;;;;;;;;;;;;;;;;;;5051733;28;19928;-83
2021/10/21 05:27:43;;;;;;;;;;;;;;;;;;5069800;28;19923;-83
2021/10/21 05:30:09;;;;;;;;;;;;;;;;;;5044037;28;19986;-82
2021/10/21 05:32:35;;;;;;;;;;;;;;;;;;5037320;28;20363;-83
2021/10/21 05:35:00;;;;;;;;;;;;;;;;;;5037318;28;19917;-82
2021/10/21 05:37:25;;;;;;;;;;;;;;;;;;5053802;28;19917;-84
2021/10/21 05:39:51;;;;;;;;;;;;;;;;;;5070988;28;19961;-84
2021/10/21 05:42:16;;;;;;;;;;;;;;;;;;5063839;28;19916;-84
2021/10/21 05:44:42;;;;;;;;;;;;;;;;;;5092583;28;19916;-84
2021/10/21 05:47:07;;;;;;;;;;;;;;;;;;5073060;28;19955;-82
2021/10/21 05:49:33;;;;;;;;;;;;;;;;;;5070816;28;19926;-84
2021/10/21 05:51:58;;;;;;;;;;;;;;;;;;5086283;28;19916;-82
2021/10/21 05:54:24;;;;;;;;;;;;;;;;;;5080770;28;19912;-82
2021/10/21 05:56:49;;;;;;;;;;;;;;;;;;5073172;28;19927;-83
2021/10/21 05:59:15;;;;;;;;;;;;;;;;;;5071936;28;19920;-82
2021/10/21 06:01:40;;;;;;;;;;;;;;;;;;5064186;28;20266;-83
2021/10/21 06:04:05;;;;;;;;;;;;;;;;;;5076407;28;19978;-82
2021/10/21 06:06:34;;;;;;;;;;;;;;;;;;5056609;28;20267;-82
2021/10/21 06:09:02;;;;;;;;;;;;;;;;;;5062377;28;19920;-83
2021/10/21 06:11:27;;;;;;;;;;;;;;;;;;5072816;28;19924;-84
2021/10/21 06:13:53;;;;;;;;;;;;;;;;;;5087296;28;19917;-84
2021/10/21 06:16:19;;;;;;;;;;;;;;;;;;5066204;28;19916;-84
2021/10/21 06:18:44;;;;;;;;;;;;;;;;;;5047841;28;20294;-84
2021/10/21 06:21:11;;;;;;;;;;;;;;;;;;5049620;28;19916;-84
2021/10/21 06:23:37;;;;;;;;;;;;;;;;;;5050233;28;19923;-84
2021/10/21 06:26:02;;;;;;;;;;;;;;;;;;5067833;28;19916;-85
2021/10/21 06:28:27;;;;;;;;;;;;;;;;;;5067360;28;19919;-84
2021/10/21 06:30:53;;;;;;;;;;;;;;;;;;5049513;28;19912;-84
2021/10/21 06:33:18;;;;;;;;;;;;;;;;;;5049389;28;19917;-84
2021/10/21 06:35:45;;;;;;;;;;;;;;;;;;5076174;28;20412;-85
2021/10/21 06:38:10;;;;;;;;;;;;;;;;;;5076464;28;19924;-84
2021/10/21 06:40:36;;;;;;;;;;;;;;;;;;5059507;28;19916;-84
2021/10/21 06:43:01;;;;;;;;;;;;;;;;;;5075533;28;20002;-84
2021/10/21 06:45:26;;;;;;;;;;;;;;;;;;5075785;28;19916;-84
2021/10/21 06:47:51;;;;;;;;;;;;;;;;;;5059420;28;19912;-85
2021/10/21 06:50:17;;;;;;;;;;;;;;;;;;5075532;28;20342;-85
2021/10/21 06:52:45;;;;;;;;;;;;;;;;;;5074759;28;19995;-84
2021/10/21 06:55:12;;;;;;;;;;;;;;;;;;5091257;28;19920;-85
2021/10/21 06:57:50;;;;;;;;;;;;;;;;;;5092664;28;19912;-85
2021/10/21 07:00:15;;;;;;;;;;;;;;;;;;5088635;28;20396;-85
2021/10/21 07:02:41;;;;;;;;;;;;;;;;;;5057166;28;19927;-84
2021/10/21 07:05:07;;;;;;;;;;;;;;;;;;5075383;28;20309;-86
2021/10/21 07:07:32;;;;;;;;;;;;;;;;;;5092102;28;19923;-85
2021/10/21 07:09:59;;;;;;;;;;;;;;;;;;5058363;28;20402;-84
2021/10/21 07:12:25;;;;;;;;;;;;;;;;;;5075555;28;19916;-85
2021/10/21 07:14:50;;;;;;;;;;;;;;;;;;5058844;28;19919;-85
2021/10/21 07:17:15;;;;;;;;;;;;;;;;;;5067543;28;20388;-85
2021/10/21 07:19:41;;;;;;;;;;;;;;;;;;5058011;28;19920;-85
2021/10/21 07:22:06;;;;;;;;;;;;;;;;;;5075702;28;19916;-84
2021/10/21 07:24:32;;;;;;;;;;;;;;;;;;5059206;28;20297;-84
2021/10/21 07:26:58;;;;;;;;;;;;;;;;;;5038495;28;19916;-85
2021/10/21 07:29:23;;;;;;;;;;;;;;;;;;5038815;28;19912;-85
2021/10/21 07:31:48;;;;;;;;;;;;;;;;;;5055526;28;20380;-85
2021/10/21 07:34:14;;;;;;;;;;;;;;;;;;5074609;28;19942;-85
2021/10/21 07:36:39;;;;;;;;;;;;;;;;;;5075073;28;19916;-84
2021/10/21 07:39:05;;;;;;;;;;;;;;;;;;5088849;28;19917;-84
2021/10/21 07:41:30;;;;;;;;;;;;;;;;;;5074945;28;19951;-85
2021/10/21 07:43:55;;;;;;;;;;;;;;;;;;5091660;28;19920;-84
2021/10/21 07:46:21;;;;;;;;;;;;;;;;;;5058185;28;20336;-84
2021/10/21 07:48:46;;;;;;;;;;;;;;;;;;5073935;28;19946;-84
2021/10/21 07:51:11;;;;;;;;;;;;;;;;;;5075008;28;19988;-85
2021/10/21 07:53:36;;;;;;;;;;;;;;;;;;5091738;28;20340;-85
2021/10/21 07:56:02;;;;;;;;;;;;;;;;;;5054466;28;20010;-85
2021/10/21 07:58:27;;;;;;;;;;;;;;;;;;5070822;28;19916;-84
2021/10/21 08:00:53;;;;;;;;;;;;;;;;;;5088930;28;19916;-84
2021/10/21 08:03:18;;;;;;;;;;;;;;;;;;5088312;28;19924;-83
2021/10/21 08:05:43;;;;;;;;;;;;;;;;;;5075543;28;20019;-83
2021/10/21 08:08:09;;;;;;;;;;;;;;;;;;5070069;28;20389;-84
2021/10/21 08:10:35;;;;;;;;;;;;;;;;;;5071179;28;19936;-84
2021/10/21 08:13:00;;;;;;;;;;;;;;;;;;5088730;28;19927;-85
2021/10/21 08:15:25;;;;;;;;;;;;;;;;;;5054741;28;19917;-86
2021/10/21 08:17:53;;;;;;;;;;;;;;;;;;5054675;28;19939;-86
2021/10/21 08:20:19;;;;;;;;;;;;;;;;;;5038925;28;19921;-86
2021/10/21 08:22:47;;;;;;;;;;;;;;;;;;5055715;28;19920;-84
2021/10/21 08:25:13;;;;;;;;;;;;;;;;;;5054545;28;19913;-84
2021/10/21 08:27:38;;;;;;;;;;;;;;;;;;5057635;28;19916;-83
2021/10/21 08:30:04;;;;;;;;;;;;;;;;;;5074191;28;19919;-85
2021/10/21 08:32:30;;;;;;;;;;;;;;;;;;5073325;28;19916;-83
2021/10/21 08:34:55;;;;;;;;;;;;;;;;;;5057612;28;19966;-84
2021/10/21 08:37:21;;;;;;;;;;;;;;;;;;5071371;28;20334;-83
2021/10/21 08:39:46;;;;;;;;;;;;;;;;;;5070385;28;19927;-82
2021/10/21 08:42:11;;;;;;;;;;;;;;;;;;5048475;28;19962;-82
2021/10/21 08:44:37;;;;;;;;;;;;;;;;;;5074379;28;19955;-83
2021/10/21 08:47:02;;;;;;;;;;;;;;;;;;5074142;28;19912;-83
2021/10/21 08:49:28;;;;;;;;;;;;;;;;;;5064278;28;19920;-83
2021/10/21 08:51:54;;;;;;;;;;;;;;;;;;5070588;28;19913;-82
2021/10/21 08:54:19;;;;;;;;;;;;;;;;;;5054202;28;19913;-82
2021/10/21 08:56:48;;;;;;;;;;;;;;;;;;5046374;28;19920;-83
2021/10/21 08:59:15;;;;;;;;;;;;;;;;;;5039089;28;20278;-83
2021/10/21 09:01:46;;;;;;;;;;;;;;;;;;5037096;28;19917;-82
2021/10/21 09:04:27;;;;;;;;;;;;;;;;;;5037475;28;19912;-83
2021/10/21 09:09:24;;;;;;;;;;;;;;;;;;5085195;28;19929;-82
2021/10/21 09:12:13;;;;;;;;;;;;;;;;;;5073482;28;19916;-82
2021/10/21 09:14:42;;;;;;;;;;;;;;;;;;5070424;28;20002;-83
2021/10/21 09:17:09;;;;;;;;;;;;;;;;;;5074556;28;19912;-83
2021/10/21 09:19:34;;;;;;;;;;;;;;;;;;5060882;28;19927;-83
2021/10/21 09:22:00;;;;;;;;;;;;;;;;;;5094794;28;20386;-82
2021/10/21 09:24:32;;;;;;;;;;;;;;;;;;5061123;28;19923;-83
2021/10/21 09:27:09;;;;;;;;;;;;;;;;;;5060916;28;20018;-82
2021/10/21 09:29:55;;;;;;;;;;;;;;;;;;5077986;28;19924;-82
2021/10/21 09:32:21;;;;;;;;;;;;;;;;;;5077097;28;19916;-83
2021/10/21 09:34:47;;;;;;;;;;;;;;;;;;5077602;28;19920;-82
2021/10/21 09:37:13;;;;;;;;;;;;;;;;;;5094695;28;19961;-82
2021/10/21 09:39:45;;;;;;;;;;;;;;;;;;5073950;28;19955;-82
2021/10/21 09:42:11;;;;;;;;;;;;;;;;;;5073870;28;19912;-82
2021/10/21 09:44:36;;;;;;;;;;;;;;;;;;5060064;28;20362;-83
2021/10/21 09:47:13;;;;;;;;;;;;;;;;;;5077740;28;19995;-82
2021/10/21 09:49:39;;;;;;;;;;;;;;;;;;5060188;28;19967;-82
2021/10/21 09:52:05;;;;;;;;;;;;;;;;;;5060823;28;20342;-82
2021/10/21 09:54:30;;;;;;;;;;;;;;;;;;5070160;28;20057;-82
2021/10/21 09:57:02;;;;;;;;;;;;;;;;;;5077086;28;19977;-82
2021/10/21 09:59:28;;;;;;;;;;;;;;;;;;5093865;28;20378;-83
2021/10/21 10:01:56;;;;;;;;;;;;;;;;;;5077242;28;19919;-82
2021/10/21 10:04:21;;;;;;;;;;;;;;;;;;5077347;28;19919;-83
2021/10/21 10:06:46;;;;;;;;;;;;;;;;;;5060127;28;19916;-82
2021/10/21 10:09:12;;;;;;;;;;;;;;;;;;5060009;28;20019;-82
2021/10/21 10:11:38;;;;;;;;;;;;;;;;;;5076820;28;20408;-82
2021/10/21 10:14:03;;;;;;;;;;;;;;;;;;5093580;28;19919;-82
2021/10/21 10:16:28;;;;;;;;;;;;;;;;;;5060127;28;20018;-83
2021/10/21 10:18:54;;;;;;;;;;;;;;;;;;5076092;28;19927;-83
2021/10/21 10:21:20;;;;;;;;;;;;;;;;;;5058309;28;19920;-83
2021/10/21 10:23:55;;;;;;;;;;;;;;;;;;5058670;28;19920;-83
2021/10/21 10:26:39;;;;;;;;;;;;;;;;;;5073477;28;19976;-83
2021/10/21 10:29:04;;;;;;;;;;;;;;;;;;5092236;28;19959;-82
2021/10/21 10:31:42;;;;;;;;;;;;;;;;;;5068956;28;20028;-82
2021/10/21 10:34:08;;;;;;;;;;;;;;;;;;5092769;28;19919;-82
2021/10/21 10:36:35;;;;;;;;;;;;;;;;;;5056785;28;20489;-82
2021/10/21 10:39:01;;;;;;;;;;;;;;;;;;5076228;28;20293;-82
2021/10/21 10:41:45;;;;;;;;;;;;;;;;;;5068884;28;20317;-83
2021/10/21 10:44:11;;;;;;;;;;;;;;;;;;5072798;28;19916;-82
2021/10/21 10:46:51;;;;;;;;;;;;;;;;;;5049416;28;19924;-82
2021/10/21 10:49:35;;;;;;;;;;;;;;;;;;5062954;28;20000;-82
2021/10/21 10:52:00;;;;;;;;;;;;;;;;;;5107829;28;19965;-82
2021/10/21 10:54:52;;;;;;;;;;;;;;;;;;5078300;28;19927;-81
2021/10/21 10:57:23;;;;;;;;;;;;;;;;;;5084427;28;19920;-81
2021/10/21 10:59:48;;;;;;;;;;;;;;;;;;5073629;28;20333;-81
2021/10/21 11:02:24;;;;;;;;;;;;;;;;;;5082895;28;19916;-81
2021/10/21 11:04:52;;;;;;;;;;;;;;;;;;5083989;28;19916;-81
2021/10/21 11:07:18;;;;;;;;;;;;;;;;;;5062882;28;19916;-81
2021/10/21 11:09:44;;;;;;;;;;;;;;;;;;5061454;28;19977;-82
2021/10/21 11:12:12;;;;;;;;;;;;;;;;;;5066771;28;20431;-81
2021/10/21 11:14:39;;;;;;;;;;;;;;;;;;5067440;28;19916;-81
2021/10/21 11:17:05;;;;;;;;;;;;;;;;;;5056832;28;19935;-81
2021/10/21 11:19:36;;;;;;;;;;;;;;;;;;5050836;28;19924;-82
2021/10/21 11:22:02;;;;;;;;;;;;;;;;;;5055539;28;20026;-81
2021/10/21 11:24:43;;;;;;;;;;;;;;;;;;5055458;28;19955;-81
2021/10/21 11:27:08;;;;;;;;;;;;;;;;;;5054983;28;20393;-81
2021/10/21 11:29:33;;;;;;;;;;;;;;;;;;5071947;28;19912;-81
2021/10/21 11:31:58;;;;;;;;;;;;;;;;;;5069000;28;19916;-81
2021/10/21 11:34:24;;;;;;;;;;;;;;;;;;5044306;28;19916;-81
2021/10/21 11:36:49;;;;;;;;;;;;;;;;;;5071784;28;20003;-81
2021/10/21 11:39:15;;;;;;;;;;;;;;;;;;5040631;28;19928;-80
2021/10/21 11:41:40;;;;;;;;;;;;;;;;;;5090307;28;20392;-81
2021/10/21 11:44:05;;;;;;;;;;;;;;;;;;5074588;28;19920;-81
2021/10/21 11:46:30;;;;;;;;;;;;;;;;;;5058221;28;19919;-81
2021/10/21 11:48:56;;;;;;;;;;;;;;;;;;5057551;28;20397;-81
2021/10/21 11:51:26;;;;;;;;;;;;;;;;;;5074749;28;19951;-80
2021/10/21 11:53:52;;;;;;;;;;;;;;;;;;5074828;28;19916;-81
2021/10/21 11:56:18;;;;;;;;;;;;;;;;;;5072745;28;20498;-81
2021/10/21 11:58:46;;;;;;;;;;;;;;;;;;5081949;28;19927;-81
2021/10/21 12:01:11;;;;;;;;;;;;;;;;;;5075119;28;19919;-82
2021/10/21 12:03:36;;;;;;;;;;;;;;;;;;5071541;28;19920;-82
2021/10/21 12:06:02;;;;;;;;;;;;;;;;;;5071471;28;19912;-82
2021/10/21 12:08:27;;;;;;;;;;;;;;;;;;5087996;28;19917;-81
2021/10/21 12:10:54;;;;;;;;;;;;;;;;;;5074002;28;19920;-81
2021/10/21 12:13:24;;;;;;;;;;;;;;;;;;5090539;28;20003;-81
2021/10/21 12:15:50;;;;;;;;;;;;;;;;;;5085675;28;19923;-82
2021/10/21 12:18:17;;;;;;;;;;;;;;;;;;5065244;28;20295;-81
2021/10/21 12:20:46;;;;;;;;;;;;;;;;;;5072989;28;19916;-81
2021/10/21 12:23:19;;;;;;;;;;;;;;;;;;5075298;28;19943;-82
2021/10/21 12:25:48;;;;;;;;;;;;;;;;;;5061681;28;19916;-81
2021/10/21 12:28:14;;;;;;;;;;;;;;;;;;5073027;28;19931;-81
2021/10/21 12:30:39;;;;;;;;;;;;;;;;;;5082175;28;19913;-81
2021/10/21 12:33:05;;;;;;;;;;;;;;;;;;5056907;28;19916;-81
2021/10/21 12:35:30;;;;;;;;;;;;;;;;;;5072475;28;19950;-81
2021/10/21 12:37:56;;;;;;;;;;;;;;;;;;5054497;28;20366;-82
2021/10/21 12:40:22;;;;;;;;;;;;;;;;;;5090433;28;19963;-81
2021/10/21 12:42:48;;;;;;;;;;;;;;;;;;5047194;28;20017;-81
2021/10/21 12:45:18;;;;;;;;;;;;;;;;;;5054021;28;21403;-81
2021/10/21 12:47:44;;;;;;;;;;;;;;;;;;5054330;28;19923;-81
2021/10/21 12:50:15;;;;;;;;;;;;;;;;;;5038892;28;19920;-81
2021/10/21 12:52:44;;;;;;;;;;;;;;;;;;5080488;28;19927;-82
2021/10/21 12:55:10;;;;;;;;;;;;;;;;;;5067529;28;19923;-81
2021/10/21 12:57:47;;;;;;;;;;;;;;;;;;5086040;28;19920;-81
2021/10/21 13:00:13;;;;;;;;;;;;;;;;;;5090221;28;19916;-81
2021/10/21 13:02:38;;;;;;;;;;;;;;;;;;5085749;28;19919;-81
2021/10/21 13:05:04;;;;;;;;;;;;;;;;;;5093819;28;19912;-82
2021/10/21 13:07:29;;;;;;;;;;;;;;;;;;5078825;28;20000;-81
2021/10/21 13:09:54;;;;;;;;;;;;;;;;;;5077445;28;19995;-81
2021/10/21 13:12:20;;;;;;;;;;;;;;;;;;5060870;28;19915;-81
2021/10/21 13:14:46;;;;;;;;;;;;;;;;;;5077917;28;20378;-81
2021/10/21 13:17:12;;;;;;;;;;;;;;;;;;5094724;28;20277;-81
2021/10/21 13:19:37;;;;;;;;;;;;;;;;;;5076588;28;19921;-81
2021/10/21 13:22:03;;;;;;;;;;;;;;;;;;5058147;28;19958;-81
2021/10/21 13:24:28;;;;;;;;;;;;;;;;;;5099020;28;19970;-81
2021/10/21 13:26:53;;;;;;;;;;;;;;;;;;5073606;28;19960;-81
2021/10/21 13:29:19;;;;;;;;;;;;;;;;;;5091025;28;19928;-81
2021/10/21 13:31:44;;;;;;;;;;;;;;;;;;5091855;28;19916;-81
2021/10/21 13:34:09;;;;;;;;;;;;;;;;;;5076903;28;20015;-82
2021/10/21 13:36:35;;;;;;;;;;;;;;;;;;5070031;28;19920;-82
2021/10/21 13:39:00;;;;;;;;;;;;;;;;;;5096871;28;19916;-82
2021/10/21 13:41:25;;;;;;;;;;;;;;;;;;5046297;28;19968;-82
2021/10/21 13:43:51;;;;;;;;;;;;;;;;;;5060191;28;19920;-82
2021/10/21 13:46:16;;;;;;;;;;;;;;;;;;5094889;28;19923;-82
2021/10/21 13:48:42;;;;;;;;;;;;;;;;;;5075859;28;19920;-81
2021/10/21 13:51:07;;;;;;;;;;;;;;;;;;5060005;28;20403;-81
2021/10/21 13:53:32;;;;;;;;;;;;;;;;;;5067111;28;19916;-82
2021/10/21 13:55:58;;;;;;;;;;;;;;;;;;5057330;28;19912;-81
2021/10/21 13:58:25;;;;;;;;;;;;;;;;;;5040164;28;19912;-82
2021/10/21 14:00:50;;;;;;;;;;;;;;;;;;5084409;28;19920;-81
2021/10/21 14:03:15;;;;;;;;;;;;;;;;;;5072580;28;20437;-81
2021/10/21 14:05:41;;;;;;;;;;;;;;;;;;5073125;28;19919;-81
2021/10/21 14:08:07;;;;;;;;;;;;;;;;;;5083195;28;20321;-81
2021/10/21 14:10:32;;;;;;;;;;;;;;;;;;5092768;28;19916;-82
2021/10/21 14:12:58;;;;;;;;;;;;;;;;;;5093643;28;19942;-81
2021/10/21 14:15:23;;;;;;;;;;;;;;;;;;5076865;28;19994;-81
2021/10/21 14:17:49;;;;;;;;;;;;;;;;;;5061256;28;19974;-81
2021/10/21 14:20:14;;;;;;;;;;;;;;;;;;5068299;28;20417;-81
2021/10/21 14:22:39;;;;;;;;;;;;;;;;;;5090171;28;19919;-82
2021/10/21 14:25:08;;;;;;;;;;;;;;;;;;5074794;28;19920;-81
2021/10/21 14:27:34;;;;;;;;;;;;;;;;;;5076674;28;19912;-81
2021/10/21 14:29:59;;;;;;;;;;;;;;;;;;5063576;28;19912;-82
2021/10/21 14:32:24;;;;;;;;;;;;;;;;;;5059382;28;19920;-82
2021/10/21 14:34:50;;;;;;;;;;;;;;;;;;5080228;28;20018;-81
2021/10/21 14:37:15;;;;;;;;;;;;;;;;;;5076369;28;19916;-81
2021/10/21 14:39:40;;;;;;;;;;;;;;;;;;5085889;28;20336;-81
2021/10/21 14:42:06;;;;;;;;;;;;;;;;;;5063502;28;19927;-81
2021/10/21 14:44:31;;;;;;;;;;;;;;;;;;5067360;28;19916;-81
2021/10/21 14:46:56;;;;;;;;;;;;;;;;;;5057994;28;20259;-82
2021/10/21 14:49:22;;;;;;;;;;;;;;;;;;5073576;28;19920;-82
2021/10/21 14:51:47;;;;;;;;;;;;;;;;;;5090830;28;20003;-82
2021/10/21 14:54:13;;;;;;;;;;;;;;;;;;5088974;28;19912;-81
2021/10/21 14:56:38;;;;;;;;;;;;;;;;;;5061289;28;19923;-82
2021/10/21 14:59:04;;;;;;;;;;;;;;;;;;5074947;28;20400;-82
2021/10/21 15:01:29;;;;;;;;;;;;;;;;;;5064739;28;19916;-82
2021/10/21 15:03:57;;;;;;;;;;;;;;;;;;5089938;28;20386;-81
2021/10/21 15:09:38;;;;;;;;;;;;;;;;;;5081901;28;19928;-82
2021/10/21 15:22:46;;;;;;;;;;;;;;;;;;5073361;28;19921;-82
2021/10/21 15:25:12;;;;;;;;;;;;;;;;;;5074293;28;19951;-82
2021/10/21 15:27:38;;;;;;;;;;;;;;;;;;5064914;28;20342;-81
2021/10/21 15:30:04;;;;;;;;;;;;;;;;;;5056744;28;19912;-81
2021/10/21 15:32:31;;;;;;;;;;;;;;;;;;5083628;28;19920;-82
2021/10/21 15:34:57;;;;;;;;;;;;;;;;;;5092542;28;20382;-87
2021/10/21 15:37:22;;;;;;;;;;;;;;;;;;5091980;28;20007;-84
2021/10/21 15:39:52;;;;;;;;;;;;;;;;;;5058369;28;19912;-84
2021/10/21 15:42:17;;;;;;;;;;;;;;;;;;5051514;28;20281;-84
2021/10/21 15:45:11;;;;;;;;;;;;;;;;;;5056857;28;19912;-84
2021/10/21 15:47:37;;;;;;;;;;;;;;;;;;5055934;28;19978;-85
2021/10/21 15:50:15;;;;;;;;;;;;;;;;;;5082836;28;19921;-84
2021/10/21 16:14:46;;;;;;;;;;;;;;;;;;5084901;28;19920;-84
2021/10/21 16:17:12;;;;;;;;;;;;;;;;;;5074797;28;20386;-84
2021/10/21 16:19:37;;;;;;;;;;;;;;;;;;5068016;28;19920;-83
2021/10/21 16:22:17;;;;;;;;;;;;;;;;;;5087620;28;19929;-84
2021/10/21 16:24:49;;;;;;;;;;;;;;;;;;5057388;28;20289;-83
2021/10/21 16:27:24;;;;;;;;;;;;;;;;;;5058488;28;19954;-83
2021/10/21 16:29:50;;;;;;;;;;;;;;;;;;5051834;28;19923;-83
2021/10/21 16:32:16;;;;;;;;;;;;;;;;;;5052967;28;20024;-83
2021/10/21 16:34:42;;;;;;;;;;;;;;;;;;5090349;28;19958;-83
2021/10/21 16:37:07;;;;;;;;;;;;;;;;;;5057246;28;19955;-84
2021/10/21 16:39:33;;;;;;;;;;;;;;;;;;5054163;28;19912;-86
2021/10/21 16:42:01;;;;;;;;;;;;;;;;;;5054151;28;19980;-84
2021/10/21 16:44:28;;;;;;;;;;;;;;;;;;5057227;28;20280;-84
2021/10/21 16:46:53;;;;;;;;;;;;;;;;;;5057544;28;19934;-84
2021/10/21 16:49:18;;;;;;;;;;;;;;;;;;5050673;28;20442;-84
2021/10/21 16:51:43;;;;;;;;;;;;;;;;;;5059897;28;20294;-83
2021/10/21 16:54:09;;;;;;;;;;;;;;;;;;5045966;28;19913;-84
2021/10/21 16:56:34;;;;;;;;;;;;;;;;;;5065204;28;19917;-83
2021/10/21 16:58:59;;;;;;;;;;;;;;;;;;5051729;28;19912;-83
2021/10/21 17:01:25;;;;;;;;;;;;;;;;;;5089700;28;19916;-83
2021/10/21 17:03:51;;;;;;;;;;;;;;;;;;5070523;28;19963;-83
2021/10/21 17:06:18;;;;;;;;;;;;;;;;;;5037527;28;19923;-82
2021/10/21 17:08:44;;;;;;;;;;;;;;;;;;5078455;28;20336;-84
2021/10/21 17:11:09;;;;;;;;;;;;;;;;;;5073727;28;19916;-83
2021/10/21 17:13:34;;;;;;;;;;;;;;;;;;5057609;28;19919;-83
2021/10/21 17:15:59;;;;;;;;;;;;;;;;;;5094512;28;19964;-83
2021/10/21 17:18:25;;;;;;;;;;;;;;;;;;5072702;28;20278;-83
2021/10/21 17:20:50;;;;;;;;;;;;;;;;;;5076398;28;19919;-83